Time;durP1;ratioP1;P1;durP2;ratioP2;P2;SDS_P1;SDS_P2;PMS_P1;PMS_P2;Temp;Humidity;BMP_temperature;BMP_pressure;BME280_temperature;BME280_humidity;BME280_pressure;Samples;Min_cycle;Max_cycle;Signal;HPM_P1;HPM_P2
2023/01/14 00:01:18;;;;;;;4.32;1.50;;;;;;;;;;5033863;28;20031;-79
2023/01/14 00:03:44;;;;;;;3.55;1.40;;;;;;;;;;5016383;28;20025;-79
2023/01/14 00:06:14;;;;;;;3.45;1.58;;;;;;;;;;5033628;28;20076;-79
2023/01/14 00:08:40;;;;;;;4.55;1.50;;;;;;;;;;5016121;28;20029;-79
2023/01/14 00:11:07;;;;;;;2.83;1.33;;;;;;;;;;5016221;28;20100;-79
2023/01/14 00:13:36;;;;;;;3.90;1.30;;;;;;;;;;5048904;28;20025;-79
2023/01/14 00:16:04;;;;;;;5.93;1.70;;;;;;;;;;5015773;28;20494;-79
2023/01/14 00:18:31;;;;;;;4.50;1.52;;;;;;;;;;5033445;28;20486;-79
2023/01/14 00:21:01;;;;;;;4.22;1.77;;;;;;;;;;5015908;28;20488;-79
2023/01/14 00:23:27;;;;;;;4.03;1.50;;;;;;;;;;5033658;28;20499;-79
2023/01/14 00:25:53;;;;;;;4.10;1.33;;;;;;;;;;5015922;28;20013;-79
2023/01/14 00:28:18;;;;;;;6.30;1.60;;;;;;;;;;4983345;28;20029;-79
2023/01/14 00:30:43;;;;;;;4.85;1.98;;;;;;;;;;5015631;28;20025;-79
2023/01/14 00:33:09;;;;;;;4.10;1.80;;;;;;;;;;5016309;28;20037;-79
2023/01/14 00:35:34;;;;;;;4.43;1.70;;;;;;;;;;5015045;28;20033;-79
2023/01/14 00:38:00;;;;;;;5.93;1.52;;;;;;;;;;5015595;28;20029;-79
2023/01/14 00:40:25;;;;;;;3.80;1.52;;;;;;;;;;5015754;28;20037;-79
2023/01/14 00:42:50;;;;;;;4.05;1.40;;;;;;;;;;4999203;28;20103;-79
2023/01/14 00:45:16;;;;;;;3.92;1.42;;;;;;;;;;4998967;28;20120;-79
2023/01/14 00:47:41;;;;;;;5.57;1.50;;;;;;;;;;4998902;28;20547;-79
2023/01/14 00:50:07;;;;;;;5.07;1.50;;;;;;;;;;5015315;28;20436;-79
2023/01/14 00:52:32;;;;;;;5.47;1.48;;;;;;;;;;5015558;28;20041;-79
2023/01/14 00:54:58;;;;;;;3.05;1.30;;;;;;;;;;5033312;28;20033;-79
2023/01/14 00:57:23;;;;;;;6.20;1.88;;;;;;;;;;4982898;28;20029;-79
2023/01/14 00:59:48;;;;;;;3.92;1.50;;;;;;;;;;5033493;28;20033;-79
2023/01/14 01:02:14;;;;;;;4.43;1.67;;;;;;;;;;5032820;28;20060;-79
2023/01/14 01:04:39;;;;;;;3.03;1.35;;;;;;;;;;5015255;28;20397;-79
2023/01/14 01:07:05;;;;;;;2.05;1.10;;;;;;;;;;5032820;28;20108;-79
2023/01/14 01:09:31;;;;;;;4.32;1.42;;;;;;;;;;5015866;28;20029;-79
2023/01/14 01:11:56;;;;;;;5.65;1.63;;;;;;;;;;5015242;28;20092;-79
2023/01/14 01:14:21;;;;;;;3.20;1.50;;;;;;;;;;5015273;28;20482;-79
2023/01/14 01:16:47;;;;;;;2.50;1.40;;;;;;;;;;5015149;28;20123;-79
2023/01/14 01:19:12;;;;;;;5.60;1.77;;;;;;;;;;4998915;28;20092;-80
2023/01/14 01:21:38;;;;;;;5.50;1.83;;;;;;;;;;5015145;28;20026;-79
2023/01/14 01:24:03;;;;;;;6.93;1.80;;;;;;;;;;4995399;28;20046;-79
2023/01/14 01:26:29;;;;;;;4.88;1.83;;;;;;;;;;4995601;28;20484;-80
2023/01/14 01:28:57;;;;;;;3.28;1.42;;;;;;;;;;4995606;28;20034;-79
2023/01/14 01:31:23;;;;;;;5.38;1.73;;;;;;;;;;4979135;28;20536;-79
2023/01/14 01:33:49;;;;;;;3.95;1.33;;;;;;;;;;4963154;28;20129;-79
2023/01/14 01:36:22;;;;;;;4.93;1.60;;;;;;;;;;4995691;28;20030;-79
2023/01/14 01:38:49;;;;;;;4.57;1.58;;;;;;;;;;4979165;28;20342;-79
2023/01/14 01:41:28;;;;;;;3.35;1.38;;;;;;;;;;4995312;28;20485;-79
2023/01/14 01:44:27;;;;;;;7.45;1.80;;;;;;;;;;4979839;28;20037;-78
2023/01/14 01:46:52;;;;;;;5.45;2.22;;;;;;;;;;5015665;28;20150;-78
2023/01/14 01:49:30;;;;;;;4.18;1.40;;;;;;;;;;4999391;28;20089;-78
2023/01/14 01:51:59;;;;;;;3.75;1.42;;;;;;;;;;4999165;28;20033;-78
2023/01/14 01:54:27;;;;;;;7.15;1.58;;;;;;;;;;4982536;28;20393;-78
2023/01/14 01:56:54;;;;;;;5.53;1.80;;;;;;;;;;4998934;28;20512;-79
2023/01/14 01:59:22;;;;;;;3.97;1.40;;;;;;;;;;4998729;28;20084;-79
2023/01/14 02:01:49;;;;;;;4.10;1.20;;;;;;;;;;5016343;28;20029;-78
2023/01/14 02:04:14;;;;;;;4.10;1.67;;;;;;;;;;4998756;28;20151;-78
2023/01/14 02:06:39;;;;;;;4.63;1.60;;;;;;;;;;4966613;28;20038;-79
2023/01/14 02:09:06;;;;;;;6.28;1.83;;;;;;;;;;4982497;28;20401;-78
2023/01/14 02:11:37;;;;;;;4.30;1.63;;;;;;;;;;4966137;28;20396;-78
2023/01/14 02:14:08;;;;;;;6.72;1.70;;;;;;;;;;4998431;28;20033;-78
2023/01/14 02:16:55;;;;;;;4.55;1.50;;;;;;;;;;5016031;28;20026;-79
2023/01/14 02:19:59;;;;;;;4.93;1.30;;;;;;;;;;5015719;28;20057;-79
2023/01/14 02:22:47;;;;;;;3.13;1.30;;;;;;;;;;5004479;28;20076;-79
2023/01/14 02:26:03;;;;;;;3.45;1.30;;;;;;;;;;5017750;28;20033;-79
2023/01/14 02:28:53;;;;;;;4.63;1.65;;;;;;;;;;4992848;28;20033;-79
2023/01/14 02:32:03;;;;;;;4.18;1.35;;;;;;;;;;5034221;28;20031;-79
2023/01/14 02:34:57;;;;;;;3.42;1.52;;;;;;;;;;4990300;28;20029;-79
2023/01/14 02:37:27;;;;;;;5.30;1.67;;;;;;;;;;5035816;28;20084;-79
2023/01/14 02:40:15;;;;;;;7.03;1.92;;;;;;;;;;5017481;28;20097;-79
2023/01/14 02:45:47;;;;;;;6.38;1.60;;;;;;;;;;5020401;28;20044;-79
2023/01/14 02:48:13;;;;;;;5.93;1.60;;;;;;;;;;5017372;28;20506;-79
2023/01/14 02:50:40;;;;;;;5.80;1.90;;;;;;;;;;5017878;28;20037;-79
2023/01/14 02:53:10;;;;;;;3.65;1.55;;;;;;;;;;5000831;28;20460;-79
2023/01/14 02:55:37;;;;;;;3.53;1.48;;;;;;;;;;5035071;28;20028;-79
2023/01/14 02:58:17;;;;;;;4.53;1.75;;;;;;;;;;5000173;28;20033;-79
2023/01/14 03:00:52;;;;;;;3.53;1.35;;;;;;;;;;5035030;28;20079;-79
2023/01/14 03:03:54;;;;;;;3.10;1.38;;;;;;;;;;5050393;28;20028;-80
2023/01/14 03:06:49;;;;;;;4.90;1.80;;;;;;;;;;5034876;28;20036;-79
2023/01/14 03:09:29;;;;;;;7.05;1.73;;;;;;;;;;4996461;28;20029;-79
2023/01/14 03:12:01;;;;;;;3.22;1.30;;;;;;;;;;5016805;28;20034;-79
2023/01/14 03:14:38;;;;;;;6.22;1.60;;;;;;;;;;5017530;28;20113;-79
2023/01/14 03:17:14;;;;;;;5.03;1.67;;;;;;;;;;5016796;28;20028;-79
2023/01/14 03:19:47;;;;;;;6.45;1.85;;;;;;;;;;5016708;28;20464;-79
2023/01/14 03:22:13;;;;;;;4.55;1.90;;;;;;;;;;5000229;28;20087;-79
2023/01/14 03:24:44;;;;;;;5.78;1.70;;;;;;;;;;5017114;28;20049;-79
2023/01/14 03:27:23;;;;;;;5.20;1.80;;;;;;;;;;5016957;28;20017;-78
2023/01/14 03:29:53;;;;;;;4.82;1.90;;;;;;;;;;5016907;28;20546;-79
2023/01/14 03:32:23;;;;;;;5.18;1.95;;;;;;;;;;5000087;28;20472;-79
2023/01/14 03:35:08;;;;;;;5.70;1.88;;;;;;;;;;5000496;28;20030;-79
2023/01/14 03:37:33;;;;;;;3.13;1.80;;;;;;;;;;5016509;28;20053;-79
2023/01/14 03:40:02;;;;;;;7.10;1.95;;;;;;;;;;5033377;28;20076;-79
2023/01/14 03:42:30;;;;;;;4.80;1.83;;;;;;;;;;5049656;28;20030;-78
2023/01/14 03:44:58;;;;;;;4.15;1.85;;;;;;;;;;5016485;28;20025;-79
2023/01/14 03:47:29;;;;;;;4.70;1.90;;;;;;;;;;5034283;28;20032;-78
2023/01/14 03:49:55;;;;;;;5.05;1.80;;;;;;;;;;5000101;28;20115;-78
2023/01/14 03:52:42;;;;;;;4.68;1.92;;;;;;;;;;5016233;28;20116;-79
2023/01/14 03:55:16;;;;;;;5.85;2.05;;;;;;;;;;5033957;28;20033;-78
2023/01/14 03:58:01;;;;;;;4.93;1.95;;;;;;;;;;5016258;28;20033;-79
2023/01/14 04:00:31;;;;;;;5.47;2.22;;;;;;;;;;5016297;28;20088;-79
2023/01/14 04:02:57;;;;;;;7.53;2.40;;;;;;;;;;5016020;28;20049;-80
2023/01/14 04:05:23;;;;;;;5.30;2.08;;;;;;;;;;5032462;28;20085;-80
2023/01/14 04:07:50;;;;;;;5.28;2.30;;;;;;;;;;5016133;28;20045;-79
2023/01/14 04:10:16;;;;;;;8.80;2.10;;;;;;;;;;5015087;28;20025;-80
2023/01/14 04:15:20;;;;;;;6.78;1.95;;;;;;;;;;5015903;28;20029;-79
2023/01/14 04:15:27;;;;;;;5.00;2.03;;;;;;;;;;5018809;28;20033;-80
2023/01/14 04:17:52;;;;;;;7.97;2.03;;;;;;;;;;5015788;28;20022;-79
2023/01/14 04:20:17;;;;;;;4.47;1.92;;;;;;;;;;5016049;28;20060;-79
2023/01/14 04:22:43;;;;;;;6.90;2.10;;;;;;;;;;5031193;28;20155;-79
2023/01/14 04:25:08;;;;;;;9.27;2.08;;;;;;;;;;4999543;28;20476;-79
2023/01/14 04:27:34;;;;;;;6.53;2.28;;;;;;;;;;4999295;28;20033;-79
2023/01/14 04:29:59;;;;;;;6.07;2.53;;;;;;;;;;5033358;28;20188;-79
2023/01/14 04:32:24;;;;;;;21.00;2.58;;;;;;;;;;5015903;28;20486;-79
2023/01/14 04:34:50;;;;;;;8.45;2.30;;;;;;;;;;5015691;28;20526;-79
2023/01/14 04:37:15;;;;;;;6.82;2.05;;;;;;;;;;4983129;28;20040;-79
2023/01/14 04:39:41;;;;;;;8.48;2.60;;;;;;;;;;5015521;28;20030;-79
2023/01/14 04:42:26;;;;;;;9.38;2.67;;;;;;;;;;5033369;28;20022;-79
2023/01/14 04:44:52;;;;;;;6.80;2.40;;;;;;;;;;5033296;28;20025;-79
2023/01/14 04:47:17;;;;;;;7.05;2.17;;;;;;;;;;5033658;28;20033;-79
2023/01/14 04:49:42;;;;;;;8.68;3.03;;;;;;;;;;4999350;28;20465;-80
2023/01/14 04:52:08;;;;;;;7.05;2.20;;;;;;;;;;5015774;28;20523;-79
2023/01/14 04:54:33;;;;;;;7.72;2.10;;;;;;;;;;5015497;28;20107;-79
2023/01/14 04:56:58;;;;;;;6.40;1.83;;;;;;;;;;5016042;28;20026;-80
2023/01/14 04:59:24;;;;;;;8.73;2.30;;;;;;;;;;5015488;28;20058;-79
2023/01/14 05:01:49;;;;;;;7.05;2.00;;;;;;;;;;4998932;28;20124;-79
2023/01/14 05:04:16;;;;;;;6.20;2.13;;;;;;;;;;5015584;28;20056;-79
2023/01/14 05:06:41;;;;;;;6.53;2.35;;;;;;;;;;5015465;28;20034;-79
2023/01/14 05:09:07;;;;;;;5.38;2.10;;;;;;;;;;5033498;28;20032;-79
2023/01/14 05:11:32;;;;;;;7.72;2.30;;;;;;;;;;5033234;28;20036;-80
2023/01/14 05:13:57;;;;;;;8.50;2.22;;;;;;;;;;5015833;28;20029;-79
2023/01/14 05:16:23;;;;;;;4.72;2.20;;;;;;;;;;5015537;28;20083;-78
2023/01/14 05:18:49;;;;;;;6.13;2.30;;;;;;;;;;5015515;28;20060;-78
2023/01/14 05:21:14;;;;;;;7.15;2.30;;;;;;;;;;5002088;28;20040;-79
2023/01/14 05:23:40;;;;;;;7.28;2.63;;;;;;;;;;4986673;28;20050;-81
2023/01/14 05:26:06;;;;;;;7.53;2.20;;;;;;;;;;5019622;28;20152;-79
2023/01/14 05:28:32;;;;;;;6.97;2.60;;;;;;;;;;5019481;28;20396;-79
2023/01/14 05:30:57;;;;;;;7.00;2.20;;;;;;;;;;5002846;28;20026;-79
2023/01/14 05:33:23;;;;;;;7.45;2.33;;;;;;;;;;5002751;28;20030;-79
2023/01/14 05:35:48;;;;;;;6.57;2.33;;;;;;;;;;5036777;28;20037;-79
2023/01/14 05:38:13;;;;;;;6.82;2.47;;;;;;;;;;5019478;28;20032;-78
2023/01/14 05:40:39;;;;;;;8.15;2.30;;;;;;;;;;5036647;28;20052;-79
2023/01/14 05:45:48;;;;;;;5.97;2.22;;;;;;;;;;5007891;28;20084;-79
2023/01/14 05:48:19;;;;;;;7.28;2.35;;;;;;;;;;5036607;28;20059;-79
2023/01/14 05:50:45;;;;;;;5.05;1.80;;;;;;;;;;5036887;28;20431;-79
2023/01/14 05:53:11;;;;;;;5.72;2.15;;;;;;;;;;5018715;28;20080;-79
2023/01/14 05:55:36;;;;;;;4.85;2.03;;;;;;;;;;5036601;28;20030;-79
2023/01/14 05:58:04;;;;;;;5.93;2.10;;;;;;;;;;5018998;28;20053;-79
2023/01/14 06:08:42;;;;;;;6.13;1.80;;;;;;;;;;5021470;28;20508;-80
2023/01/14 06:11:08;;;;;;;6.32;1.95;;;;;;;;;;5002198;28;20033;-79
2023/01/14 06:13:34;;;;;;;9.18;2.22;;;;;;;;;;5018519;28;20108;-79
2023/01/14 06:16:02;;;;;;;4.97;1.98;;;;;;;;;;5001956;28;20457;-80
2023/01/14 06:18:37;;;;;;;6.88;1.75;;;;;;;;;;4986459;28;20040;-79
2023/01/14 06:21:02;;;;;;;7.53;2.42;;;;;;;;;;5036586;28;20033;-79
2023/01/14 06:23:28;;;;;;;5.78;1.80;;;;;;;;;;5018164;28;20112;-79
2023/01/14 06:25:53;;;;;;;5.10;2.00;;;;;;;;;;5001840;28;20029;-79
2023/01/14 06:28:18;;;;;;;6.82;1.80;;;;;;;;;;5018052;28;20033;-79
2023/01/14 06:30:44;;;;;;;10.30;2.08;;;;;;;;;;5036143;28;20431;-79
2023/01/14 06:33:09;;;;;;;5.15;2.33;;;;;;;;;;5034753;28;20022;-79
2023/01/14 06:35:40;;;;;;;4.57;1.80;;;;;;;;;;5035715;28;20431;-79
2023/01/14 06:38:05;;;;;;;5.97;2.13;;;;;;;;;;5018039;28;20480;-79
2023/01/14 06:40:31;;;;;;;4.40;1.85;;;;;;;;;;5035600;28;20039;-79
2023/01/14 06:42:56;;;;;;;4.93;1.85;;;;;;;;;;5017832;28;20036;-79
2023/01/14 06:45:23;;;;;;;4.90;1.92;;;;;;;;;;5018131;28;20099;-79
2023/01/14 06:47:48;;;;;;;5.93;2.05;;;;;;;;;;5018239;28;20025;-79
2023/01/14 06:50:17;;;;;;;5.20;2.20;;;;;;;;;;5002069;28;20452;-79
2023/01/14 06:52:42;;;;;;;8.35;2.10;;;;;;;;;;5017573;28;20124;-79
2023/01/14 06:55:08;;;;;;;4.45;1.98;;;;;;;;;;5035475;28;20061;-79
2023/01/14 06:57:33;;;;;;;5.15;1.98;;;;;;;;;;5001410;28;20036;-79
2023/01/14 06:59:58;;;;;;;7.50;2.13;;;;;;;;;;5035383;28;20453;-79
2023/01/14 07:02:24;;;;;;;5.95;2.08;;;;;;;;;;5017557;28;20022;-79
2023/01/14 07:04:49;;;;;;;4.30;1.58;;;;;;;;;;5017472;28;20072;-79
2023/01/14 07:07:14;;;;;;;5.43;2.08;;;;;;;;;;5035394;28;20481;-79
2023/01/14 07:09:40;;;;;;;5.38;1.90;;;;;;;;;;5017794;28;20412;-79
2023/01/14 07:12:05;;;;;;;4.45;1.70;;;;;;;;;;5017631;28;20032;-79
2023/01/14 07:14:31;;;;;;;5.75;2.13;;;;;;;;;;5000968;28;20528;-79
2023/01/14 07:16:56;;;;;;;7.18;1.90;;;;;;;;;;5017660;28;20026;-79
2023/01/14 07:19:21;;;;;;;5.18;1.42;;;;;;;;;;5035228;28;20415;-79
2023/01/14 07:21:48;;;;;;;5.00;1.70;;;;;;;;;;5001379;28;20026;-79
2023/01/14 07:24:13;;;;;;;8.10;2.50;;;;;;;;;;4981897;28;20052;-79
2023/01/14 07:26:38;;;;;;;7.22;2.30;;;;;;;;;;5015253;28;20463;-79
2023/01/14 07:29:04;;;;;;;5.95;1.58;;;;;;;;;;5014950;28;20065;-79
2023/01/14 07:31:30;;;;;;;5.00;1.83;;;;;;;;;;4997319;28;20469;-78
2023/01/14 07:33:55;;;;;;;7.53;1.70;;;;;;;;;;5014877;28;20041;-79
2023/01/14 07:36:21;;;;;;;5.03;1.75;;;;;;;;;;5015531;28;20122;-79
2023/01/14 07:38:46;;;;;;;5.13;1.98;;;;;;;;;;4981016;28;20034;-79
2023/01/14 07:41:17;;;;;;;6.28;1.92;;;;;;;;;;4997660;28;20041;-79
2023/01/14 07:43:43;;;;;;;6.30;2.08;;;;;;;;;;4997372;28;20029;-81
2023/01/14 07:46:09;;;;;;;6.28;2.00;;;;;;;;;;5015232;28;20041;-84
2023/01/14 07:48:34;;;;;;;4.95;2.03;;;;;;;;;;5014604;28;20034;-80
2023/01/14 07:51:02;;;;;;;6.45;2.17;;;;;;;;;;4997293;28;20124;-79
2023/01/14 07:53:28;;;;;;;6.80;2.13;;;;;;;;;;5014432;28;20515;-79
2023/01/14 07:55:54;;;;;;;9.23;2.40;;;;;;;;;;4997871;28;20124;-79
2023/01/14 07:58:21;;;;;;;9.45;2.53;;;;;;;;;;5009024;28;20415;-79
2023/01/14 08:00:47;;;;;;;6.55;2.53;;;;;;;;;;5010121;28;20032;-78
2023/01/14 08:03:12;;;;;;;13.55;2.75;;;;;;;;;;5016661;28;20029;-79
2023/01/14 08:05:38;;;;;;;9.73;2.17;;;;;;;;;;4983945;28;20048;-79
2023/01/14 08:08:04;;;;;;;9.90;2.10;;;;;;;;;;5029425;28;20027;-80
2023/01/14 08:10:30;;;;;;;5.25;2.30;;;;;;;;;;4995060;28;20036;-79
2023/01/14 08:12:56;;;;;;;16.48;2.53;;;;;;;;;;5000106;28;20104;-78
2023/01/14 08:15:23;;;;;;;9.50;2.45;;;;;;;;;;5017837;23;20076;-78
2023/01/14 08:17:48;;;;;;;20.70;2.20;;;;;;;;;;5035361;28;20025;-78
2023/01/14 08:20:15;;;;;;;11.23;2.13;;;;;;;;;;5036207;28;20048;-79
2023/01/14 08:22:40;;;;;;;13.77;2.38;;;;;;;;;;5016078;28;20045;-79
2023/01/14 08:25:06;;;;;;;6.63;1.80;;;;;;;;;;5016074;28;20034;-78
2023/01/14 08:27:31;;;;;;;7.85;2.08;;;;;;;;;;5032823;28;20033;-79
2023/01/14 08:29:57;;;;;;;10.35;2.15;;;;;;;;;;5036579;28;20033;-79
2023/01/14 08:32:24;;;;;;;7.57;2.45;;;;;;;;;;5033378;28;20061;-79
2023/01/14 08:34:49;;;;;;;8.50;2.20;;;;;;;;;;5034152;28;20105;-79
2023/01/14 08:37:15;;;;;;;6.10;2.45;;;;;;;;;;5016192;28;20502;-79
2023/01/14 08:39:40;;;;;;;9.90;2.17;;;;;;;;;;5016593;28;20021;-79
2023/01/14 08:42:06;;;;;;;12.18;1.95;;;;;;;;;;5035717;28;20037;-80
2023/01/14 08:44:32;;;;;;;8.48;1.90;;;;;;;;;;5000234;28;20095;-80
2023/01/14 08:46:57;;;;;;;12.20;2.17;;;;;;;;;;5033560;28;20093;-80
2023/01/14 08:49:23;;;;;;;9.13;2.03;;;;;;;;;;5017428;28;20037;-80
2023/01/14 08:51:49;;;;;;;7.20;2.40;;;;;;;;;;5017055;28;20064;-80
2023/01/14 08:54:14;;;;;;;10.07;2.47;;;;;;;;;;5017817;28;20033;-81
2023/01/14 08:56:40;;;;;;;6.28;2.38;;;;;;;;;;5001678;28;20025;-80
2023/01/14 08:59:05;;;;;;;5.47;2.00;;;;;;;;;;5000692;28;20083;-80
2023/01/14 09:01:31;;;;;;;11.60;2.28;;;;;;;;;;5000666;28;20018;-80
2023/01/14 09:04:00;;;;;;;10.05;2.20;;;;;;;;;;5038316;28;20029;-80
2023/01/14 09:06:26;;;;;;;8.80;1.90;;;;;;;;;;5038290;28;20029;-80
2023/01/14 09:17:11;;;;;;;4.65;1.45;;;;;;;;;;5032495;28;20052;-80
2023/01/14 09:19:46;;;;;;;11.30;2.30;;;;;;;;;;5032281;28;20022;-79
2023/01/14 09:22:14;;;;;;;5.50;1.80;;;;;;;;;;5012706;28;20045;-76
2023/01/14 09:24:39;;;;;;;7.43;1.75;;;;;;;;;;5012488;28;20101;-80
2023/01/14 09:27:05;;;;;;;7.00;2.30;;;;;;;;;;5014076;28;20049;-81
2023/01/14 09:29:30;;;;;;;9.15;2.05;;;;;;;;;;4995770;28;20028;-80
2023/01/14 09:31:55;;;;;;;14.00;2.45;;;;;;;;;;5013735;28;20392;-81
2023/01/14 09:34:21;;;;;;;11.98;2.92;;;;;;;;;;5013771;28;20389;-81
2023/01/14 09:36:46;;;;;;;12.98;2.38;;;;;;;;;;5013242;28;20042;-81
2023/01/14 09:39:12;;;;;;;9.50;2.30;;;;;;;;;;5013531;28;20033;-81
2023/01/14 09:41:48;;;;;;;10.32;2.65;;;;;;;;;;5014230;28;20033;-80
2023/01/14 09:44:14;;;;;;;8.95;2.28;;;;;;;;;;5013598;28;20022;-80
2023/01/14 09:46:39;;;;;;;6.47;2.22;;;;;;;;;;4998530;28;20511;-80
2023/01/14 09:49:05;;;;;;;12.70;3.13;;;;;;;;;;4969736;28;20043;-80
2023/01/14 09:51:52;;;;;;;11.35;2.70;;;;;;;;;;5004895;28;20034;-80
2023/01/14 09:54:45;;;;;;;10.85;2.80;;;;;;;;;;5003362;28;20566;-79
2023/01/14 09:57:19;;;;;;;20.40;2.83;;;;;;;;;;5012466;28;20026;-80
2023/01/14 09:59:58;;;;;;;16.60;3.10;;;;;;;;;;5013657;28;20032;-80
2023/01/14 10:02:32;;;;;;;11.35;3.08;;;;;;;;;;5012466;28;20030;-80
2023/01/14 10:05:22;;;;;;;10.27;3.08;;;;;;;;;;5013177;28;20030;-80
2023/01/14 10:07:48;;;;;;;17.02;2.65;;;;;;;;;;4996382;28;20527;-80
2023/01/14 10:10:24;;;;;;;10.55;2.97;;;;;;;;;;5016367;28;20041;-79
2023/01/14 10:12:51;;;;;;;12.57;2.63;;;;;;;;;;5015518;28;20022;-80
2023/01/14 10:15:40;;;;;;;8.57;2.65;;;;;;;;;;5018439;28;20068;-80
2023/01/14 10:18:26;;;;;;;9.45;2.53;;;;;;;;;;5001829;28;20108;-80
2023/01/14 10:20:57;;;;;;;11.93;2.63;;;;;;;;;;5026712;28;20044;-80
2023/01/14 10:23:26;;;;;;;13.30;2.10;;;;;;;;;;5040414;28;20017;-79
2023/01/14 10:25:53;;;;;;;10.05;2.05;;;;;;;;;;5023538;28;20066;-81
2023/01/14 10:28:22;;;;;;;11.13;2.53;;;;;;;;;;5038389;28;20390;-79
2023/01/14 10:30:48;;;;;;;9.90;2.85;;;;;;;;;;5023628;28;20040;-80
2023/01/14 10:33:16;;;;;;;7.03;2.08;;;;;;;;;;5040585;28;20040;-80
2023/01/14 10:35:43;;;;;;;10.10;2.17;;;;;;;;;;5039696;28;20028;-79
2023/01/14 10:38:15;;;;;;;9.73;2.95;;;;;;;;;;5040445;28;20028;-81
2023/01/14 10:40:40;;;;;;;7.78;2.17;;;;;;;;;;5038722;28;20436;-80
2023/01/14 10:43:15;;;;;;;4.53;1.60;;;;;;;;;;5043468;28;20028;-79
2023/01/14 10:45:40;;;;;;;6.20;2.15;;;;;;;;;;5041783;28;20041;-79
2023/01/14 10:48:11;;;;;;;10.32;2.58;;;;;;;;;;5056782;28;20036;-79
2023/01/14 10:50:37;;;;;;;8.25;1.92;;;;;;;;;;5062650;28;20052;-78
2023/01/14 10:53:19;;;;;;;6.85;1.80;;;;;;;;;;5005674;28;20065;-80
2023/01/14 10:55:52;;;;;;;6.22;1.90;;;;;;;;;;5038186;28;20059;-80
2023/01/14 10:58:41;;;;;;;11.18;1.85;;;;;;;;;;5055734;28;20090;-79
2023/01/14 11:01:08;;;;;;;4.68;1.95;;;;;;;;;;5027673;28;20091;-79
2023/01/14 11:03:39;;;;;;;5.70;1.65;;;;;;;;;;5037552;28;20021;-80
2023/01/14 11:06:10;;;;;;;17.80;2.25;;;;;;;;;;5037718;28;20484;-81
2023/01/14 11:08:38;;;;;;;8.63;2.35;;;;;;;;;;5037578;28;20021;-79
2023/01/14 11:11:11;;;;;;;8.32;1.80;;;;;;;;;;5037228;28;20029;-80
2023/01/14 11:13:43;;;;;;;5.22;1.35;;;;;;;;;;5037054;28;20029;-80
2023/01/14 11:16:21;;;;;;;10.02;2.65;;;;;;;;;;5042199;28;20504;-78
2023/01/14 11:19:01;;;;;;;7.72;1.83;;;;;;;;;;5034231;28;20036;-78
2023/01/14 11:21:35;;;;;;;6.68;1.58;;;;;;;;;;5034826;28;20029;-79
2023/01/14 11:24:07;;;;;;;3.35;1.85;;;;;;;;;;5016710;28;20506;-80
2023/01/14 11:26:37;;;;;;;12.35;1.67;;;;;;;;;;5000165;28;20032;-78
2023/01/14 11:29:20;;;;;;;5.97;1.58;;;;;;;;;;5017107;28;20038;-78
2023/01/14 11:31:47;;;;;;;5.40;1.70;;;;;;;;;;5016420;28;20128;-78
2023/01/14 11:34:31;;;;;;;3.50;1.50;;;;;;;;;;5000394;28;20030;-79
2023/01/14 11:37:17;;;;;;;3.70;1.40;;;;;;;;;;5016483;28;20128;-79
2023/01/14 11:39:48;;;;;;;3.67;1.23;;;;;;;;;;5017018;28;20057;-78
2023/01/14 11:42:21;;;;;;;4.07;1.80;;;;;;;;;;5016270;28;20056;-79
2023/01/14 11:45:15;;;;;;;6.00;1.40;;;;;;;;;;5015893;28;20037;-78
2023/01/14 11:47:49;;;;;;;4.40;1.27;;;;;;;;;;5032739;28;20096;-78
2023/01/14 11:50:26;;;;;;;4.15;1.67;;;;;;;;;;5033081;28;20033;-78
2023/01/14 11:53:05;;;;;;;7.05;1.48;;;;;;;;;;5015867;28;20033;-78
2023/01/14 11:55:36;;;;;;;4.90;1.60;;;;;;;;;;5033991;28;20108;-78
2023/01/14 11:58:25;;;;;;;5.85;1.65;;;;;;;;;;5033742;28;20073;-78
2023/01/14 12:01:04;;;;;;;4.30;1.40;;;;;;;;;;5033807;28;20095;-78
2023/01/14 12:03:37;;;;;;;4.00;1.40;;;;;;;;;;4999706;28;20104;-78
2023/01/14 12:06:13;;;;;;;3.92;1.30;;;;;;;;;;5016287;28;20198;-78
2023/01/14 12:08:40;;;;;;;3.65;1.30;;;;;;;;;;5015919;28;20109;-78
2023/01/14 12:11:20;;;;;;;3.08;1.30;;;;;;;;;;4999530;28;20021;-79
2023/01/14 12:16:55;;;;;;;4.65;1.40;;;;;;;;;;5027468;28;20068;-78
2023/01/14 12:19:25;;;;;;;4.85;1.40;;;;;;;;;;5032161;28;20029;-78
2023/01/14 12:22:34;;;;;;;7.35;1.95;;;;;;;;;;5048758;28;20065;-77
2023/01/14 12:25:12;;;;;;;5.22;1.77;;;;;;;;;;5015637;28;20083;-77
2023/01/14 12:27:57;;;;;;;4.20;1.27;;;;;;;;;;5031880;28;20494;-80
2023/01/14 12:30:37;;;;;;;1.92;1.15;;;;;;;;;;5001166;28;20443;-79
2023/01/14 12:33:08;;;;;;;2.88;1.20;;;;;;;;;;5032021;28;20468;-78
2023/01/14 12:35:39;;;;;;;2.75;1.30;;;;;;;;;;5033058;28;20486;-79
2023/01/14 12:45:41;;;;;;;3.35;1.45;;;;;;;;;;5031953;28;20070;-78
2023/01/14 12:46:29;;;;;;;4.88;1.52;;;;;;;;;;5044270;28;20627;-80
2023/01/14 12:48:58;;;;;;;3.88;1.25;;;;;;;;;;5015463;28;20048;-80
2023/01/14 12:51:29;;;;;;;7.45;1.10;;;;;;;;;;5031543;28;20036;-80
2023/01/14 12:53:58;;;;;;;3.13;1.50;;;;;;;;;;5031726;28;20025;-80
2023/01/14 12:56:27;;;;;;;7.70;1.30;;;;;;;;;;5031735;28;20551;-80
2023/01/14 12:59:05;;;;;;;5.25;1.38;;;;;;;;;;5031618;28;20029;-80
2023/01/14 13:01:47;;;;;;;13.95;1.63;;;;;;;;;;5031780;28;20433;-80
2023/01/14 13:04:18;;;;;;;5.00;1.10;;;;;;;;;;5031614;28;20108;-80
2023/01/14 13:06:44;;;;;;;2.88;1.02;;;;;;;;;;5031749;28;20029;-80
2023/01/14 13:09:19;;;;;;;4.75;0.80;;;;;;;;;;5031872;28;20029;-80
2023/01/14 13:11:46;;;;;;;2.20;1.00;;;;;;;;;;5015119;28;20026;-80
2023/01/14 13:14:39;;;;;;;1.67;1.02;;;;;;;;;;5031416;28;20484;-78
2023/01/14 13:17:21;;;;;;;1.35;0.95;;;;;;;;;;4995953;28;20126;-80
2023/01/14 13:19:52;;;;;;;1.83;1.00;;;;;;;;;;5015077;28;20056;-80
2023/01/14 13:22:39;;;;;;;2.60;1.25;;;;;;;;;;4998539;28;20107;-80
2023/01/14 13:25:04;;;;;;;2.45;1.08;;;;;;;;;;5032788;28;20036;-80
2023/01/14 13:27:36;;;;;;;1.83;0.80;;;;;;;;;;5032712;28;20392;-80
2023/01/14 13:30:25;;;;;;;4.97;0.80;;;;;;;;;;5032533;28;20029;-79
2023/01/14 13:33:08;;;;;;;2.42;0.80;;;;;;;;;;5020365;28;20099;-78
2023/01/14 13:35:35;;;;;;;3.67;1.10;;;;;;;;;;5031665;28;20071;-79
2023/01/14 13:38:02;;;;;;;1.30;1.00;;;;;;;;;;5015121;28;20034;-79
2023/01/14 13:40:32;;;;;;;1.10;0.98;;;;;;;;;;5015537;28;20025;-79
2023/01/14 13:43:15;;;;;;;2.92;0.77;;;;;;;;;;5018629;28;20100;-79
2023/01/14 13:45:40;;;;;;;4.03;0.98;;;;;;;;;;5036049;28;20033;-79
2023/01/14 13:48:23;;;;;;;1.40;0.88;;;;;;;;;;5002802;28;20029;-79
2023/01/14 13:50:49;;;;;;;2.30;1.15;;;;;;;;;;5019417;28;20026;-79
2023/01/14 13:53:17;;;;;;;1.67;0.73;;;;;;;;;;5019626;28;20034;-79
2023/01/14 13:56:09;;;;;;;1.95;0.75;;;;;;;;;;5020635;28;20021;-79
2023/01/14 13:58:40;;;;;;;0.80;0.80;;;;;;;;;;5014668;28;20092;-80
2023/01/14 14:01:18;;;;;;;1.23;0.80;;;;;;;;;;5019203;28;20028;-79
2023/01/14 14:03:43;;;;;;;1.98;1.13;;;;;;;;;;5036698;28;20029;-78
2023/01/14 14:06:21;;;;;;;4.43;1.00;;;;;;;;;;5036457;28;20025;-80
2023/01/14 14:08:58;;;;;;;0.95;0.70;;;;;;;;;;5018825;28;20087;-79
2023/01/14 14:11:27;;;;;;;2.28;0.90;;;;;;;;;;5018652;28;20103;-78
2023/01/14 14:14:05;;;;;;;1.27;0.80;;;;;;;;;;5018651;28;20152;-78
2023/01/14 14:16:34;;;;;;;8.48;1.05;;;;;;;;;;5035757;28;20076;-78
2023/01/14 14:19:09;;;;;;;1.67;0.88;;;;;;;;;;5035093;28;20484;-78
2023/01/14 14:21:55;;;;;;;1.35;0.80;;;;;;;;;;5018464;28;20041;-79
2023/01/14 14:24:26;;;;;;;2.50;0.80;;;;;;;;;;5018346;28;20025;-79
2023/01/14 14:26:53;;;;;;;3.60;0.70;;;;;;;;;;5001657;28;20034;-79
2023/01/14 14:29:19;;;;;;;1.55;0.60;;;;;;;;;;5017776;28;20056;-79
2023/01/14 14:31:45;;;;;;;1.10;0.70;;;;;;;;;;5035760;28;20029;-78
2023/01/14 14:34:20;;;;;;;1.52;0.70;;;;;;;;;;5018907;28;20113;-78
2023/01/14 14:37:00;;;;;;;1.42;0.70;;;;;;;;;;5018382;28;20036;-78
2023/01/14 14:39:31;;;;;;;2.15;0.95;;;;;;;;;;5018261;28;20025;-78
2023/01/14 14:41:57;;;;;;;2.00;0.90;;;;;;;;;;5036032;28;20051;-78
2023/01/14 14:44:24;;;;;;;1.38;0.75;;;;;;;;;;5018189;28;20025;-79
2023/01/14 14:46:50;;;;;;;0.80;0.60;;;;;;;;;;5018037;28;20030;-78
2023/01/14 14:49:30;;;;;;;2.00;0.90;;;;;;;;;;5017841;28;20040;-79
2023/01/14 14:51:57;;;;;;;2.00;0.70;;;;;;;;;;5018522;28;20104;-78
2023/01/14 14:54:29;;;;;;;1.20;0.77;;;;;;;;;;4995053;28;20030;-77
2023/01/14 14:56:57;;;;;;;1.92;1.00;;;;;;;;;;5002491;28;20375;-76
2023/01/14 14:59:24;;;;;;;1.58;0.70;;;;;;;;;;5018669;28;20108;-78
2023/01/14 15:01:50;;;;;;;1.35;0.60;;;;;;;;;;5002689;28;20108;-77
2023/01/14 15:04:17;;;;;;;3.65;0.95;;;;;;;;;;5018569;28;20495;-79
2023/01/14 15:06:43;;;;;;;1.17;0.70;;;;;;;;;;5001737;28;20025;-78
2023/01/14 15:09:09;;;;;;;0.77;0.45;;;;;;;;;;5001826;28;20571;-79
2023/01/14 15:11:46;;;;;;;3.35;0.55;;;;;;;;;;5035533;28;20025;-79
2023/01/14 15:14:28;;;;;;;1.10;0.70;;;;;;;;;;5017723;28;20029;-78
2023/01/14 15:16:54;;;;;;;1.10;0.73;;;;;;;;;;5015531;28;20050;-79
2023/01/14 15:19:21;;;;;;;1.52;0.80;;;;;;;;;;5017272;28;20029;-78
2023/01/14 15:21:47;;;;;;;2.13;0.80;;;;;;;;;;5033958;28;20028;-79
2023/01/14 15:24:18;;;;;;;1.45;1.00;;;;;;;;;;5035341;28;20029;-79
2023/01/14 15:26:45;;;;;;;1.08;0.70;;;;;;;;;;5034825;28;20025;-79
2023/01/14 15:29:33;;;;;;;2.30;0.95;;;;;;;;;;5033705;28;20026;-79
2023/01/14 15:32:27;;;;;;;0.85;0.50;;;;;;;;;;5017131;28;20433;-79